sensor_id;sensor_type;location;lat;lon;timestamp;P1;durP1;ratioP1;P2;durP2;ratioP2
462;SDS011;218;51.902;9.542;2022-10-13T00:00:04;6.87;;;6.27;;
462;SDS011;218;51.902;9.542;2022-10-13T00:02:32;7.57;;;6.93;;
462;SDS011;218;51.902;9.542;2022-10-13T00:04:59;6.90;;;6.30;;
462;SDS011;218;51.902;9.542;2022-10-13T00:07:26;7.63;;;7.03;;
462;SDS011;218;51.902;9.542;2022-10-13T00:09:55;6.87;;;6.37;;
462;SDS011;218;51.902;9.542;2022-10-13T00:12:21;6.90;;;6.40;;
462;SDS011;218;51.902;9.542;2022-10-13T00:14:49;10.90;;;7.87;;
462;SDS011;218;51.902;9.542;2022-10-13T00:17:16;7.23;;;6.70;;
462;SDS011;218;51.902;9.542;2022-10-13T00:19:43;8.37;;;7.67;;
462;SDS011;218;51.902;9.542;2022-10-13T00:22:10;8.03;;;7.40;;
462;SDS011;218;51.902;9.542;2022-10-13T00:24:37;7.43;;;6.73;;
462;SDS011;218;51.902;9.542;2022-10-13T00:27:06;8.40;;;7.50;;
462;SDS011;218;51.902;9.542;2022-10-13T00:29:33;7.13;;;6.53;;
462;SDS011;218;51.902;9.542;2022-10-13T00:32:00;8.33;;;7.10;;
462;SDS011;218;51.902;9.542;2022-10-13T00:34:27;6.70;;;6.10;;
462;SDS011;218;51.902;9.542;2022-10-13T00:36:54;8.70;;;7.80;;
462;SDS011;218;51.902;9.542;2022-10-13T00:39:21;6.60;;;6.00;;
462;SDS011;218;51.902;9.542;2022-10-13T00:41:48;7.70;;;6.97;;
462;SDS011;218;51.902;9.542;2022-10-13T00:47:38;7.30;;;6.70;;
462;SDS011;218;51.902;9.542;2022-10-13T00:50:13;7.77;;;7.03;;
462;SDS011;218;51.902;9.542;2022-10-13T00:52:42;7.67;;;6.97;;
462;SDS011;218;51.902;9.542;2022-10-13T00:55:09;7.60;;;7.10;;
462;SDS011;218;51.902;9.542;2022-10-13T00:57:37;8.07;;;7.37;;
462;SDS011;218;51.902;9.542;2022-10-13T01:00:06;7.17;;;6.57;;
462;SDS011;218;51.902;9.542;2022-10-13T01:02:34;7.43;;;6.80;;
462;SDS011;218;51.902;9.542;2022-10-13T01:05:04;7.33;;;6.63;;
462;SDS011;218;51.902;9.542;2022-10-13T01:07:31;8.57;;;7.67;;
462;SDS011;218;51.902;9.542;2022-10-13T01:09:59;7.90;;;7.10;;
462;SDS011;218;51.902;9.542;2022-10-13T01:12:30;7.67;;;6.80;;
462;SDS011;218;51.902;9.542;2022-10-13T01:15:02;8.43;;;7.60;;
462;SDS011;218;51.902;9.542;2022-10-13T01:17:32;7.80;;;7.10;;
462;SDS011;218;51.902;9.542;2022-10-13T01:23:08;9.40;;;7.30;;
462;SDS011;218;51.902;9.542;2022-10-13T01:25:45;8.13;;;7.33;;
462;SDS011;218;51.902;9.542;2022-10-13T01:28:32;9.07;;;8.00;;
462;SDS011;218;51.902;9.542;2022-10-13T01:31:14;10.33;;;7.53;;
462;SDS011;218;51.902;9.542;2022-10-13T01:33:43;8.70;;;7.87;;
462;SDS011;218;51.902;9.542;2022-10-13T01:36:15;7.80;;;6.63;;
462;SDS011;218;51.902;9.542;2022-10-13T01:38:50;7.73;;;7.03;;
462;SDS011;218;51.902;9.542;2022-10-13T01:41:20;7.90;;;7.20;;
462;SDS011;218;51.902;9.542;2022-10-13T01:43:51;7.67;;;6.97;;
462;SDS011;218;51.902;9.542;2022-10-13T01:46:21;8.37;;;7.57;;
462;SDS011;218;51.902;9.542;2022-10-13T01:48:51;8.10;;;7.30;;
462;SDS011;218;51.902;9.542;2022-10-13T01:51:20;10.40;;;9.50;;
462;SDS011;218;51.902;9.542;2022-10-13T01:53:48;9.40;;;7.23;;
462;SDS011;218;51.902;9.542;2022-10-13T01:56:16;9.97;;;7.70;;
462;SDS011;218;51.902;9.542;2022-10-13T01:58:45;9.50;;;8.60;;
462;SDS011;218;51.902;9.542;2022-10-13T02:01:15;9.87;;;8.97;;
462;SDS011;218;51.902;9.542;2022-10-13T02:03:50;8.27;;;7.57;;
462;SDS011;218;51.902;9.542;2022-10-13T02:06:22;9.90;;;8.90;;
462;SDS011;218;51.902;9.542;2022-10-13T02:08:54;8.87;;;8.07;;
462;SDS011;218;51.902;9.542;2022-10-13T02:11:23;7.10;;;6.50;;
462;SDS011;218;51.902;9.542;2022-10-13T02:13:52;7.97;;;7.27;;
462;SDS011;218;51.902;9.542;2022-10-13T02:16:23;7.83;;;7.10;;
462;SDS011;218;51.902;9.542;2022-10-13T02:18:54;10.07;;;7.67;;
462;SDS011;218;51.902;9.542;2022-10-13T02:21:22;8.63;;;7.13;;
462;SDS011;218;51.902;9.542;2022-10-13T02:23:49;9.53;;;8.63;;
462;SDS011;218;51.902;9.542;2022-10-13T02:26:16;8.60;;;7.80;;
462;SDS011;218;51.902;9.542;2022-10-13T02:28:44;9.57;;;8.60;;
462;SDS011;218;51.902;9.542;2022-10-13T02:31:11;10.65;;;9.38;;
462;SDS011;218;51.902;9.542;2022-10-13T02:33:38;9.77;;;8.10;;
462;SDS011;218;51.902;9.542;2022-10-13T02:36:07;10.27;;;8.50;;
462;SDS011;218;51.902;9.542;2022-10-13T02:38:34;10.10;;;9.20;;
462;SDS011;218;51.902;9.542;2022-10-13T02:41:02;9.97;;;9.00;;
462;SDS011;218;51.902;9.542;2022-10-13T02:43:29;11.40;;;8.93;;
462;SDS011;218;51.902;9.542;2022-10-13T02:45:57;9.63;;;8.73;;
462;SDS011;218;51.902;9.542;2022-10-13T02:48:25;11.70;;;10.60;;
462;SDS011;218;51.902;9.542;2022-10-13T02:50:55;11.67;;;10.60;;
462;SDS011;218;51.902;9.542;2022-10-13T02:53:32;11.10;;;10.00;;
462;SDS011;218;51.902;9.542;2022-10-13T02:55:59;10.57;;;9.57;;
462;SDS011;218;51.902;9.542;2022-10-13T02:58:26;12.40;;;10.27;;
462;SDS011;218;51.902;9.542;2022-10-13T03:00:53;10.30;;;9.37;;
462;SDS011;218;51.902;9.542;2022-10-13T03:03:21;13.93;;;10.10;;
462;SDS011;218;51.902;9.542;2022-10-13T03:05:48;12.77;;;10.30;;
462;SDS011;218;51.902;9.542;2022-10-13T03:08:15;12.63;;;10.05;;
462;SDS011;218;51.902;9.542;2022-10-13T03:10:44;13.20;;;10.30;;
462;SDS011;218;51.902;9.542;2022-10-13T03:13:13;13.87;;;10.70;;
462;SDS011;218;51.902;9.542;2022-10-13T03:15:40;15.20;;;12.50;;
462;SDS011;218;51.902;9.542;2022-10-13T03:18:07;12.63;;;11.30;;
462;SDS011;218;51.902;9.542;2022-10-13T03:20:34;12.80;;;11.50;;
462;SDS011;218;51.902;9.542;2022-10-13T03:23:02;13.10;;;11.50;;
462;SDS011;218;51.902;9.542;2022-10-13T03:25:30;12.27;;;10.30;;
462;SDS011;218;51.902;9.542;2022-10-13T03:27:59;13.13;;;11.63;;
462;SDS011;218;51.902;9.542;2022-10-13T03:30:26;12.50;;;10.60;;
462;SDS011;218;51.902;9.542;2022-10-13T03:32:53;15.67;;;13.93;;
462;SDS011;218;51.902;9.542;2022-10-13T03:35:26;13.23;;;11.67;;
462;SDS011;218;51.902;9.542;2022-10-13T03:38:09;13.23;;;11.90;;
462;SDS011;218;51.902;9.542;2022-10-13T03:40:36;12.13;;;10.93;;
462;SDS011;218;51.902;9.542;2022-10-13T03:43:04;11.03;;;9.93;;
462;SDS011;218;51.902;9.542;2022-10-13T03:45:31;12.60;;;10.50;;
462;SDS011;218;51.902;9.542;2022-10-13T03:47:58;10.53;;;9.30;;
462;SDS011;218;51.902;9.542;2022-10-13T03:50:26;13.20;;;11.60;;
462;SDS011;218;51.902;9.542;2022-10-13T03:52:53;11.93;;;10.60;;
462;SDS011;218;51.902;9.542;2022-10-13T03:55:20;12.83;;;11.33;;
462;SDS011;218;51.902;9.542;2022-10-13T03:57:47;10.93;;;9.83;;
462;SDS011;218;51.902;9.542;2022-10-13T04:00:17;13.63;;;11.80;;
462;SDS011;218;51.902;9.542;2022-10-13T04:02:52;12.40;;;10.83;;
462;SDS011;218;51.902;9.542;2022-10-13T04:05:19;13.00;;;11.70;;
462;SDS011;218;51.902;9.542;2022-10-13T04:07:47;12.67;;;11.53;;
462;SDS011;218;51.902;9.542;2022-10-13T04:10:14;13.87;;;12.57;;
462;SDS011;218;51.902;9.542;2022-10-13T04:12:41;13.07;;;11.77;;
462;SDS011;218;51.902;9.542;2022-10-13T04:15:09;12.40;;;10.93;;
462;SDS011;218;51.902;9.542;2022-10-13T04:17:37;11.77;;;9.93;;
462;SDS011;218;51.902;9.542;2022-10-13T04:20:05;12.53;;;11.43;;
462;SDS011;218;51.902;9.542;2022-10-13T04:22:33;12.97;;;11.57;;
462;SDS011;218;51.902;9.542;2022-10-13T04:25:00;12.43;;;11.33;;
462;SDS011;218;51.902;9.542;2022-10-13T04:27:27;12.60;;;11.17;;
462;SDS011;218;51.902;9.542;2022-10-13T04:29:55;16.33;;;12.23;;
462;SDS011;218;51.902;9.542;2022-10-13T04:32:22;13.23;;;12.03;;
462;SDS011;218;51.902;9.542;2022-10-13T04:34:50;15.80;;;12.73;;
462;SDS011;218;51.902;9.542;2022-10-13T04:37:18;18.03;;;13.57;;
462;SDS011;218;51.902;9.542;2022-10-13T04:39:45;13.97;;;12.50;;
462;SDS011;218;51.902;9.542;2022-10-13T04:42:12;14.10;;;12.60;;
462;SDS011;218;51.902;9.542;2022-10-13T04:44:39;14.37;;;12.87;;
462;SDS011;218;51.902;9.542;2022-10-13T04:47:06;15.17;;;12.27;;
462;SDS011;218;51.902;9.542;2022-10-13T04:49:33;13.07;;;11.77;;
462;SDS011;218;51.902;9.542;2022-10-13T04:52:02;14.90;;;13.07;;
462;SDS011;218;51.902;9.542;2022-10-13T04:54:29;13.50;;;12.10;;
462;SDS011;218;51.902;9.542;2022-10-13T04:56:56;14.70;;;12.13;;
462;SDS011;218;51.902;9.542;2022-10-13T04:59:24;15.40;;;13.13;;
462;SDS011;218;51.902;9.542;2022-10-13T05:01:51;16.00;;;12.73;;
462;SDS011;218;51.902;9.542;2022-10-13T05:04:18;15.27;;;12.30;;
462;SDS011;218;51.902;9.542;2022-10-13T05:06:45;13.80;;;12.27;;
462;SDS011;218;51.902;9.542;2022-10-13T05:09:14;14.63;;;13.23;;
462;SDS011;218;51.902;9.542;2022-10-13T05:11:41;16.30;;;13.37;;
462;SDS011;218;51.902;9.542;2022-10-13T05:14:08;14.23;;;12.80;;
462;SDS011;218;51.902;9.542;2022-10-13T05:16:35;14.07;;;12.67;;
462;SDS011;218;51.902;9.542;2022-10-13T05:19:03;15.90;;;14.20;;
462;SDS011;218;51.902;9.542;2022-10-13T05:21:29;16.03;;;14.33;;
462;SDS011;218;51.902;9.542;2022-10-13T05:23:56;18.67;;;13.87;;
462;SDS011;218;51.902;9.542;2022-10-13T05:26:28;14.43;;;12.57;;
462;SDS011;218;51.902;9.542;2022-10-13T05:28:56;17.10;;;14.50;;
462;SDS011;218;51.902;9.542;2022-10-13T05:31:24;13.87;;;12.37;;
462;SDS011;218;51.902;9.542;2022-10-13T05:33:52;16.20;;;14.53;;
462;SDS011;218;51.902;9.542;2022-10-13T05:36:20;15.47;;;13.77;;
462;SDS011;218;51.902;9.542;2022-10-13T05:38:48;14.53;;;13.00;;
462;SDS011;218;51.902;9.542;2022-10-13T05:41:17;14.33;;;12.93;;
462;SDS011;218;51.902;9.542;2022-10-13T05:43:46;16.43;;;14.53;;
462;SDS011;218;51.902;9.542;2022-10-13T05:46:14;15.80;;;14.23;;
462;SDS011;218;51.902;9.542;2022-10-13T05:48:41;20.53;;;15.13;;
462;SDS011;218;51.902;9.542;2022-10-13T05:51:09;17.83;;;13.53;;
462;SDS011;218;51.902;9.542;2022-10-13T05:53:39;16.13;;;13.33;;
462;SDS011;218;51.902;9.542;2022-10-13T05:56:10;14.87;;;13.37;;
462;SDS011;218;51.902;9.542;2022-10-13T05:58:46;15.73;;;13.97;;
462;SDS011;218;51.902;9.542;2022-10-13T06:01:22;18.40;;;13.27;;
462;SDS011;218;51.902;9.542;2022-10-13T06:03:51;17.03;;;15.17;;
462;SDS011;218;51.902;9.542;2022-10-13T06:06:20;18.03;;;15.20;;
462;SDS011;218;51.902;9.542;2022-10-13T06:08:49;14.50;;;13.00;;
462;SDS011;218;51.902;9.542;2022-10-13T06:11:17;14.53;;;13.03;;
462;SDS011;218;51.902;9.542;2022-10-13T06:13:44;14.70;;;13.10;;
462;SDS011;218;51.902;9.542;2022-10-13T06:16:12;17.90;;;14.33;;
462;SDS011;218;51.902;9.542;2022-10-13T06:18:40;16.90;;;15.10;;
462;SDS011;218;51.902;9.542;2022-10-13T06:21:07;18.57;;;15.03;;
462;SDS011;218;51.902;9.542;2022-10-13T06:23:34;19.73;;;15.60;;
462;SDS011;218;51.902;9.542;2022-10-13T06:26:01;18.40;;;15.53;;
462;SDS011;218;51.902;9.542;2022-10-13T06:28:29;19.03;;;16.93;;
462;SDS011;218;51.902;9.542;2022-10-13T06:30:56;22.23;;;16.17;;
462;SDS011;218;51.902;9.542;2022-10-13T06:33:24;19.77;;;16.77;;
462;SDS011;218;51.902;9.542;2022-10-13T06:35:52;17.70;;;15.87;;
462;SDS011;218;51.902;9.542;2022-10-13T06:38:19;19.67;;;17.20;;
462;SDS011;218;51.902;9.542;2022-10-13T06:40:46;20.07;;;17.30;;
462;SDS011;218;51.902;9.542;2022-10-13T06:43:14;18.97;;;16.07;;
462;SDS011;218;51.902;9.542;2022-10-13T06:45:41;17.10;;;15.30;;
462;SDS011;218;51.902;9.542;2022-10-13T06:48:08;20.13;;;17.93;;
462;SDS011;218;51.902;9.542;2022-10-13T06:50:35;20.90;;;17.33;;
462;SDS011;218;51.902;9.542;2022-10-13T06:53:04;19.70;;;17.10;;
462;SDS011;218;51.902;9.542;2022-10-13T06:55:31;21.93;;;18.43;;
462;SDS011;218;51.902;9.542;2022-10-13T06:57:58;19.93;;;17.90;;
462;SDS011;218;51.902;9.542;2022-10-13T07:00:25;23.17;;;18.93;;
462;SDS011;218;51.902;9.542;2022-10-13T07:02:52;27.93;;;20.90;;
462;SDS011;218;51.902;9.542;2022-10-13T07:05:20;24.20;;;20.30;;
462;SDS011;218;51.902;9.542;2022-10-13T07:07:47;23.63;;;19.47;;
462;SDS011;218;51.902;9.542;2022-10-13T07:13:11;22.37;;;20.00;;
462;SDS011;218;51.902;9.542;2022-10-13T07:15:39;19.07;;;17.07;;
462;SDS011;218;51.902;9.542;2022-10-13T07:18:06;19.30;;;17.30;;
462;SDS011;218;51.902;9.542;2022-10-13T07:20:33;21.47;;;18.17;;
462;SDS011;218;51.902;9.542;2022-10-13T07:23:01;19.80;;;17.70;;
462;SDS011;218;51.902;9.542;2022-10-13T07:25:28;20.50;;;17.80;;
462;SDS011;218;51.902;9.542;2022-10-13T07:27:58;21.07;;;19.03;;
462;SDS011;218;51.902;9.542;2022-10-13T07:30:25;21.73;;;19.10;;
462;SDS011;218;51.902;9.542;2022-10-13T07:32:52;22.60;;;20.30;;
462;SDS011;218;51.902;9.542;2022-10-13T07:35:19;22.53;;;18.97;;
462;SDS011;218;51.902;9.542;2022-10-13T07:37:50;23.80;;;20.17;;
462;SDS011;218;51.902;9.542;2022-10-13T07:40:18;21.17;;;18.87;;
462;SDS011;218;51.902;9.542;2022-10-13T07:42:45;22.83;;;20.43;;
462;SDS011;218;51.902;9.542;2022-10-13T07:45:13;24.80;;;20.80;;
462;SDS011;218;51.902;9.542;2022-10-13T07:47:41;21.43;;;19.13;;
462;SDS011;218;51.902;9.542;2022-10-13T07:50:08;22.73;;;20.30;;
462;SDS011;218;51.902;9.542;2022-10-13T07:52:35;24.90;;;21.30;;
462;SDS011;218;51.902;9.542;2022-10-13T07:55:03;21.90;;;19.17;;
462;SDS011;218;51.902;9.542;2022-10-13T07:57:30;25.70;;;22.40;;
462;SDS011;218;51.902;9.542;2022-10-13T07:59:58;24.10;;;21.40;;
462;SDS011;218;51.902;9.542;2022-10-13T08:02:26;23.77;;;21.07;;
462;SDS011;218;51.902;9.542;2022-10-13T08:04:54;24.23;;;21.70;;
462;SDS011;218;51.902;9.542;2022-10-13T08:07:21;24.83;;;20.40;;
462;SDS011;218;51.902;9.542;2022-10-13T08:09:48;25.97;;;21.77;;
462;SDS011;218;51.902;9.542;2022-10-13T08:12:15;32.57;;;25.07;;
462;SDS011;218;51.902;9.542;2022-10-13T08:14:42;30.70;;;22.57;;
462;SDS011;218;51.902;9.542;2022-10-13T08:17:09;31.03;;;23.10;;
462;SDS011;218;51.902;9.542;2022-10-13T08:19:37;27.97;;;22.47;;
462;SDS011;218;51.902;9.542;2022-10-13T08:22:04;27.10;;;20.20;;
462;SDS011;218;51.902;9.542;2022-10-13T08:24:31;28.33;;;21.10;;
462;SDS011;218;51.902;9.542;2022-10-13T08:26:58;26.07;;;22.10;;
462;SDS011;218;51.902;9.542;2022-10-13T08:29:25;26.07;;;22.40;;
462;SDS011;218;51.902;9.542;2022-10-13T08:31:53;27.70;;;21.37;;
462;SDS011;218;51.902;9.542;2022-10-13T08:34:21;29.50;;;25.30;;
462;SDS011;218;51.902;9.542;2022-10-13T08:36:49;30.23;;;24.03;;
462;SDS011;218;51.902;9.542;2022-10-13T08:39:18;31.43;;;24.23;;
462;SDS011;218;51.902;9.542;2022-10-13T08:41:48;26.77;;;21.93;;
462;SDS011;218;51.902;9.542;2022-10-13T08:44:19;26.00;;;21.97;;
462;SDS011;218;51.902;9.542;2022-10-13T08:46:49;28.33;;;20.37;;
462;SDS011;218;51.902;9.542;2022-10-13T08:49:23;28.07;;;22.67;;
462;SDS011;218;51.902;9.542;2022-10-13T08:51:51;22.90;;;20.10;;
462;SDS011;218;51.902;9.542;2022-10-13T08:54:19;23.83;;;20.33;;
462;SDS011;218;51.902;9.542;2022-10-13T08:56:49;24.77;;;20.73;;
462;SDS011;218;51.902;9.542;2022-10-13T08:59:17;23.90;;;20.20;;
462;SDS011;218;51.902;9.542;2022-10-13T09:01:46;24.73;;;22.13;;
462;SDS011;218;51.902;9.542;2022-10-13T09:04:21;23.70;;;20.83;;
462;SDS011;218;51.902;9.542;2022-10-13T09:06:55;23.67;;;19.60;;
462;SDS011;218;51.902;9.542;2022-10-13T09:09:24;22.63;;;19.00;;
462;SDS011;218;51.902;9.542;2022-10-13T09:11:51;21.67;;;18.43;;
462;SDS011;218;51.902;9.542;2022-10-13T09:14:19;20.70;;;18.60;;
462;SDS011;218;51.902;9.542;2022-10-13T09:16:48;25.07;;;18.50;;
462;SDS011;218;51.902;9.542;2022-10-13T09:19:19;20.83;;;17.60;;
462;SDS011;218;51.902;9.542;2022-10-13T09:21:48;19.63;;;17.73;;
462;SDS011;218;51.902;9.542;2022-10-13T09:24:17;23.13;;;20.73;;
462;SDS011;218;51.902;9.542;2022-10-13T09:26:47;28.80;;;25.70;;
462;SDS011;218;51.902;9.542;2022-10-13T09:29:17;27.10;;;24.50;;
462;SDS011;218;51.902;9.542;2022-10-13T09:34:42;20.23;;;18.43;;
462;SDS011;218;51.902;9.542;2022-10-13T09:37:16;18.97;;;17.27;;
462;SDS011;218;51.902;9.542;2022-10-13T09:39:44;19.17;;;17.30;;
462;SDS011;218;51.902;9.542;2022-10-13T09:42:19;21.90;;;19.60;;
462;SDS011;218;51.902;9.542;2022-10-13T09:44:47;20.13;;;18.07;;
462;SDS011;218;51.902;9.542;2022-10-13T09:47:22;19.50;;;17.70;;
462;SDS011;218;51.902;9.542;2022-10-13T09:49:59;18.33;;;16.40;;
462;SDS011;218;51.902;9.542;2022-10-13T09:52:27;17.97;;;16.17;;
462;SDS011;218;51.902;9.542;2022-10-13T09:54:56;17.60;;;15.97;;
462;SDS011;218;51.902;9.542;2022-10-13T09:57:28;17.77;;;16.17;;
462;SDS011;218;51.902;9.542;2022-10-13T10:00:06;18.07;;;16.07;;
462;SDS011;218;51.902;9.542;2022-10-13T10:02:40;17.50;;;15.80;;
462;SDS011;218;51.902;9.542;2022-10-13T10:05:15;17.03;;;15.30;;
462;SDS011;218;51.902;9.542;2022-10-13T10:07:48;16.70;;;15.10;;
462;SDS011;218;51.902;9.542;2022-10-13T10:10:21;15.57;;;13.97;;
462;SDS011;218;51.902;9.542;2022-10-13T10:12:54;16.40;;;14.77;;
462;SDS011;218;51.902;9.542;2022-10-13T10:15:23;16.70;;;13.80;;
462;SDS011;218;51.902;9.542;2022-10-13T10:17:58;16.60;;;14.40;;
462;SDS011;218;51.902;9.542;2022-10-13T10:20:33;16.13;;;14.57;;
462;SDS011;218;51.902;9.542;2022-10-13T10:23:10;15.40;;;13.50;;
462;SDS011;218;51.902;9.542;2022-10-13T10:25:44;13.63;;;12.33;;
462;SDS011;218;51.902;9.542;2022-10-13T10:31:09;15.63;;;13.70;;
462;SDS011;218;51.902;9.542;2022-10-13T10:33:48;15.27;;;13.87;;
462;SDS011;218;51.902;9.542;2022-10-13T10:36:26;15.23;;;13.73;;
462;SDS011;218;51.902;9.542;2022-10-13T10:39:00;15.60;;;14.10;;
462;SDS011;218;51.902;9.542;2022-10-13T10:41:37;17.70;;;13.40;;
462;SDS011;218;51.902;9.542;2022-10-13T10:44:12;14.40;;;13.10;;
462;SDS011;218;51.902;9.542;2022-10-13T10:46:41;13.43;;;12.10;;
462;SDS011;218;51.902;9.542;2022-10-13T10:49:12;14.60;;;13.20;;
462;SDS011;218;51.902;9.542;2022-10-13T10:51:43;13.47;;;11.70;;
462;SDS011;218;51.902;9.542;2022-10-13T10:54:17;13.43;;;12.07;;
462;SDS011;218;51.902;9.542;2022-10-13T10:56:57;13.60;;;12.47;;
462;SDS011;218;51.902;9.542;2022-10-13T10:59:38;15.03;;;11.30;;
462;SDS011;218;51.902;9.542;2022-10-13T11:02:14;13.70;;;12.30;;
462;SDS011;218;51.902;9.542;2022-10-13T11:04:55;13.33;;;12.03;;
462;SDS011;218;51.902;9.542;2022-10-13T11:10:20;14.13;;;12.57;;
462;SDS011;218;51.902;9.542;2022-10-13T11:15:52;11.30;;;10.40;;
462;SDS011;218;51.902;9.542;2022-10-13T11:24:48;12.73;;;11.40;;
462;SDS011;218;51.902;9.542;2022-10-13T11:27:42;12.30;;;11.10;;
462;SDS011;218;51.902;9.542;2022-10-13T11:38:58;13.87;;;12.07;;
462;SDS011;218;51.902;9.542;2022-10-13T11:41:34;11.53;;;10.53;;
462;SDS011;218;51.902;9.542;2022-10-13T11:44:10;14.53;;;13.13;;
462;SDS011;218;51.902;9.542;2022-10-13T11:46:49;13.90;;;12.50;;
462;SDS011;218;51.902;9.542;2022-10-13T11:52:38;12.80;;;11.70;;
462;SDS011;218;51.902;9.542;2022-10-13T11:55:13;13.87;;;12.57;;
462;SDS011;218;51.902;9.542;2022-10-13T11:57:44;15.60;;;12.10;;
462;SDS011;218;51.902;9.542;2022-10-13T12:00:12;12.30;;;11.10;;
462;SDS011;218;51.902;9.542;2022-10-13T12:02:46;12.23;;;11.03;;
462;SDS011;218;51.902;9.542;2022-10-13T12:05:24;14.02;;;12.73;;
462;SDS011;218;51.902;9.542;2022-10-13T12:07:58;14.73;;;13.23;;
462;SDS011;218;51.902;9.542;2022-10-13T12:10:30;13.50;;;12.30;;
462;SDS011;218;51.902;9.542;2022-10-13T12:12:58;15.20;;;13.60;;
462;SDS011;218;51.902;9.542;2022-10-13T12:15:32;13.00;;;11.80;;
462;SDS011;218;51.902;9.542;2022-10-13T12:18:01;12.73;;;11.60;;
462;SDS011;218;51.902;9.542;2022-10-13T12:20:29;13.93;;;12.50;;
462;SDS011;218;51.902;9.542;2022-10-13T12:22:58;14.23;;;12.73;;
462;SDS011;218;51.902;9.542;2022-10-13T12:25:26;14.00;;;12.50;;
462;SDS011;218;51.902;9.542;2022-10-13T12:27:56;12.37;;;11.17;;
462;SDS011;218;51.902;9.542;2022-10-13T12:30:25;13.73;;;11.63;;
462;SDS011;218;51.902;9.542;2022-10-13T12:32:55;13.80;;;12.60;;
462;SDS011;218;51.902;9.542;2022-10-13T12:35:25;12.37;;;11.20;;
462;SDS011;218;51.902;9.542;2022-10-13T12:37:53;12.80;;;11.60;;
462;SDS011;218;51.902;9.542;2022-10-13T12:40:23;12.27;;;11.37;;
462;SDS011;218;51.902;9.542;2022-10-13T12:42:51;14.37;;;12.83;;
462;SDS011;218;51.902;9.542;2022-10-13T12:45:18;11.67;;;10.67;;
462;SDS011;218;51.902;9.542;2022-10-13T12:47:49;14.40;;;11.50;;
462;SDS011;218;51.902;9.542;2022-10-13T12:55:56;11.77;;;10.67;;
462;SDS011;218;51.902;9.542;2022-10-13T12:58:25;11.50;;;10.37;;
462;SDS011;218;51.902;9.542;2022-10-13T13:00:55;10.70;;;9.63;;
462;SDS011;218;51.902;9.542;2022-10-13T13:03:26;10.40;;;9.53;;
462;SDS011;218;51.902;9.542;2022-10-13T13:06:08;11.27;;;10.13;;
462;SDS011;218;51.902;9.542;2022-10-13T13:08:45;9.90;;;8.70;;
462;SDS011;218;51.902;9.542;2022-10-13T13:11:21;9.50;;;8.70;;
462;SDS011;218;51.902;9.542;2022-10-13T13:13:49;10.33;;;9.33;;
462;SDS011;218;51.902;9.542;2022-10-13T13:16:16;9.80;;;8.60;;
462;SDS011;218;51.902;9.542;2022-10-13T13:18:45;10.20;;;9.23;;
462;SDS011;218;51.902;9.542;2022-10-13T13:21:14;13.77;;;10.77;;
462;SDS011;218;51.902;9.542;2022-10-13T13:23:43;13.23;;;10.37;;
462;SDS011;218;51.902;9.542;2022-10-13T13:26:13;10.27;;;9.30;;
462;SDS011;218;51.902;9.542;2022-10-13T13:28:44;11.13;;;10.03;;
462;SDS011;218;51.902;9.542;2022-10-13T13:31:12;9.30;;;8.50;;
462;SDS011;218;51.902;9.542;2022-10-13T13:33:41;11.20;;;9.97;;
462;SDS011;218;51.902;9.542;2022-10-13T13:36:20;10.37;;;9.40;;
462;SDS011;218;51.902;9.542;2022-10-13T13:39:00;10.00;;;9.00;;
462;SDS011;218;51.902;9.542;2022-10-13T13:41:27;9.50;;;8.60;;
462;SDS011;218;51.902;9.542;2022-10-13T13:43:56;10.90;;;8.40;;
462;SDS011;218;51.902;9.542;2022-10-13T13:46:23;11.23;;;9.83;;
462;SDS011;218;51.902;9.542;2022-10-13T13:48:53;10.73;;;9.73;;
462;SDS011;218;51.902;9.542;2022-10-13T13:51:20;10.27;;;9.37;;
462;SDS011;218;51.902;9.542;2022-10-13T13:53:46;9.50;;;8.50;;
462;SDS011;218;51.902;9.542;2022-10-13T13:56:14;8.07;;;7.30;;
462;SDS011;218;51.902;9.542;2022-10-13T13:58:42;8.77;;;6.70;;
462;SDS011;218;51.902;9.542;2022-10-13T14:01:11;7.97;;;7.17;;
462;SDS011;218;51.902;9.542;2022-10-13T14:03:39;7.97;;;7.17;;
462;SDS011;218;51.902;9.542;2022-10-13T14:06:06;7.33;;;6.40;;
462;SDS011;218;51.902;9.542;2022-10-13T14:08:35;7.50;;;6.80;;
462;SDS011;218;51.902;9.542;2022-10-13T14:11:05;7.90;;;7.10;;
462;SDS011;218;51.902;9.542;2022-10-13T14:13:32;6.83;;;6.23;;
462;SDS011;218;51.902;9.542;2022-10-13T14:16:00;8.17;;;5.97;;
462;SDS011;218;51.902;9.542;2022-10-13T14:18:30;6.97;;;6.47;;
462;SDS011;218;51.902;9.542;2022-10-13T14:20:58;7.57;;;6.77;;
462;SDS011;218;51.902;9.542;2022-10-13T14:23:24;11.43;;;6.30;;
462;SDS011;218;51.902;9.542;2022-10-13T14:25:51;8.37;;;6.70;;
462;SDS011;218;51.902;9.542;2022-10-13T14:28:18;7.60;;;6.53;;
462;SDS011;218;51.902;9.542;2022-10-13T14:30:45;7.50;;;6.13;;
462;SDS011;218;51.902;9.542;2022-10-13T14:33:12;8.43;;;7.63;;
462;SDS011;218;51.902;9.542;2022-10-13T14:35:44;7.50;;;6.80;;
462;SDS011;218;51.902;9.542;2022-10-13T14:38:11;8.83;;;7.80;;
462;SDS011;218;51.902;9.542;2022-10-13T14:40:39;9.53;;;8.40;;
462;SDS011;218;51.902;9.542;2022-10-13T14:43:07;8.10;;;7.40;;
462;SDS011;218;51.902;9.542;2022-10-13T14:45:34;7.67;;;6.87;;
462;SDS011;218;51.902;9.542;2022-10-13T14:48:03;9.80;;;7.67;;
462;SDS011;218;51.902;9.542;2022-10-13T14:50:32;9.93;;;7.13;;
462;SDS011;218;51.902;9.542;2022-10-13T14:53:01;9.70;;;7.80;;
462;SDS011;218;51.902;9.542;2022-10-13T14:55:28;8.00;;;7.30;;
462;SDS011;218;51.902;9.542;2022-10-13T14:57:56;7.47;;;6.80;;
462;SDS011;218;51.902;9.542;2022-10-13T15:00:23;8.83;;;7.80;;
462;SDS011;218;51.902;9.542;2022-10-13T15:03:02;8.10;;;7.40;;
462;SDS011;218;51.902;9.542;2022-10-13T15:05:29;8.20;;;7.43;;
462;SDS011;218;51.902;9.542;2022-10-13T15:08:01;8.60;;;7.43;;
462;SDS011;218;51.902;9.542;2022-10-13T15:10:28;7.70;;;7.00;;
462;SDS011;218;51.902;9.542;2022-10-13T15:12:55;7.87;;;7.07;;
462;SDS011;218;51.902;9.542;2022-10-13T15:15:22;7.73;;;7.07;;
462;SDS011;218;51.902;9.542;2022-10-13T15:17:50;8.30;;;7.53;;
462;SDS011;218;51.902;9.542;2022-10-13T15:20:17;7.50;;;6.70;;
462;SDS011;218;51.902;9.542;2022-10-13T15:22:45;8.83;;;7.93;;
462;SDS011;218;51.902;9.542;2022-10-13T15:25:14;7.57;;;6.83;;
462;SDS011;218;51.902;9.542;2022-10-13T15:27:41;7.60;;;7.00;;
462;SDS011;218;51.902;9.542;2022-10-13T15:30:08;8.60;;;6.93;;
462;SDS011;218;51.902;9.542;2022-10-13T15:32:35;9.20;;;7.20;;
462;SDS011;218;51.902;9.542;2022-10-13T15:35:02;8.33;;;7.03;;
462;SDS011;218;51.902;9.542;2022-10-13T15:37:30;7.70;;;6.90;;
462;SDS011;218;51.902;9.542;2022-10-13T15:39:57;6.90;;;6.23;;
462;SDS011;218;51.902;9.542;2022-10-13T15:42:25;7.30;;;6.60;;
462;SDS011;218;51.902;9.542;2022-10-13T15:44:52;7.43;;;6.70;;
462;SDS011;218;51.902;9.542;2022-10-13T15:47:20;7.17;;;6.57;;
462;SDS011;218;51.902;9.542;2022-10-13T15:49:47;7.27;;;6.57;;
462;SDS011;218;51.902;9.542;2022-10-13T15:52:14;11.63;;;7.20;;
462;SDS011;218;51.902;9.542;2022-10-13T15:54:41;8.07;;;7.37;;
462;SDS011;218;51.902;9.542;2022-10-13T15:57:08;7.37;;;6.77;;
462;SDS011;218;51.902;9.542;2022-10-13T15:59:36;7.07;;;6.43;;
462;SDS011;218;51.902;9.542;2022-10-13T16:02:03;7.90;;;7.17;;
462;SDS011;218;51.902;9.542;2022-10-13T16:04:30;7.60;;;7.00;;
462;SDS011;218;51.902;9.542;2022-10-13T16:06:57;9.83;;;7.23;;
462;SDS011;218;51.902;9.542;2022-10-13T16:09:24;7.70;;;7.07;;
462;SDS011;218;51.902;9.542;2022-10-13T16:11:51;8.00;;;7.10;;
462;SDS011;218;51.902;9.542;2022-10-13T16:14:19;12.53;;;7.13;;
462;SDS011;218;51.902;9.542;2022-10-13T16:16:47;10.60;;;9.70;;
462;SDS011;218;51.902;9.542;2022-10-13T16:19:14;9.80;;;8.87;;
462;SDS011;218;51.902;9.542;2022-10-13T16:21:41;9.30;;;8.50;;